createdAt,value
2023-04-13T00:00:46.706Z,2.88
2023-04-13T00:03:17.430Z,2.10
2023-04-13T00:05:46.290Z,1.90
2023-04-13T00:08:13.362Z,3.88
2023-04-13T00:10:43.006Z,4.97
2023-04-13T00:13:10.910Z,3.05
2023-04-13T00:15:41.851Z,2.90
2023-04-13T00:18:10.528Z,5.85
2023-04-13T00:20:37.886Z,2.55
2023-04-13T00:23:04.715Z,1.05
2023-04-13T00:25:31.494Z,3.38
2023-04-13T00:28:01.887Z,4.55
2023-04-13T00:30:28.849Z,2.05
2023-04-13T00:32:55.670Z,2.65
2023-04-13T00:35:26.434Z,3.05
2023-04-13T00:37:53.743Z,3.83
2023-04-13T00:40:20.697Z,1.20
2023-04-13T00:42:49.027Z,4.57
2023-04-13T00:45:18.031Z,1.92
2023-04-13T00:47:48.795Z,1.38
2023-04-13T00:50:19.070Z,5.30
2023-04-13T00:52:47.261Z,1.13
2023-04-13T00:55:14.977Z,2.95
2023-04-13T00:57:42.009Z,2.25
2023-04-13T01:00:09.875Z,5.15
2023-04-13T01:02:37.372Z,9.13
2023-04-13T01:05:06.848Z,2.70
2023-04-13T01:07:49.889Z,1.65
2023-04-13T01:10:42.734Z,4.35
2023-04-13T01:13:24.183Z,3.00
2023-04-13T01:16:01.381Z,2.20
2023-04-13T01:18:30.202Z,3.47
2023-04-13T01:20:57.877Z,1.73
2023-04-13T01:23:37.481Z,4.43
2023-04-13T01:26:08.618Z,5.20
2023-04-13T01:28:38.004Z,5.60
2023-04-13T01:31:11.557Z,8.05
2023-04-13T01:33:42.319Z,8.60
2023-04-13T01:36:10.568Z,11.98
2023-04-13T01:38:37.943Z,12.70
2023-04-13T01:41:05.053Z,8.20
2023-04-13T01:43:32.290Z,7.63
2023-04-13T01:46:01.672Z,12.18
2023-04-13T01:48:33.376Z,12.63
2023-04-13T01:51:19.453Z,6.43
2023-04-13T01:53:51.901Z,6.95
2023-04-13T01:56:19.561Z,7.60
2023-04-13T01:58:56.286Z,10.20
2023-04-13T02:01:24.045Z,5.75
2023-04-13T02:03:51.497Z,10.27
2023-04-13T02:06:18.677Z,9.77
2023-04-13T02:08:45.424Z,6.95
2023-04-13T02:11:12.908Z,13.25
2023-04-13T02:13:39.642Z,8.00
2023-04-13T02:16:07.380Z,8.35
2023-04-13T02:18:34.226Z,8.18
2023-04-13T02:21:08.014Z,7.22
2023-04-13T02:23:35.496Z,8.63
2023-04-13T02:56:30.872Z,9.75
2023-04-13T03:29:37.816Z,6.13
2023-04-13T03:32:04.776Z,3.42
2023-04-13T03:34:31.758Z,3.60
2023-04-13T03:36:58.561Z,3.08
2023-04-13T03:39:25.245Z,5.85
2023-04-13T03:41:52.018Z,3.35
2023-04-13T03:44:19.206Z,5.28
2023-04-13T03:46:46.035Z,4.72
2023-04-13T03:49:12.875Z,5.15
2023-04-13T03:51:39.617Z,4.72
2023-04-13T03:54:07.396Z,3.90
2023-04-13T03:56:34.152Z,9.98
2023-04-13T03:59:00.964Z,6.90
2023-04-13T04:01:30.698Z,12.80
2023-04-13T04:34:32.072Z,3.55
2023-04-13T04:37:03.173Z,7.43
2023-04-13T05:09:54.677Z,10.65
2023-04-13T05:42:17.083Z,17.77
2023-04-13T05:44:44.110Z,30.02
2023-04-13T06:09:27.195Z,10.57
2023-04-13T06:11:54.531Z,10.30
2023-04-13T06:14:22.182Z,6.32
2023-04-13T06:16:48.988Z,11.32
2023-04-13T06:23:01.389Z,6.93
2023-04-13T06:40:21.873Z,8.07
2023-04-13T06:42:48.748Z,8.35
2023-04-13T06:45:15.545Z,15.73
2023-04-13T06:47:42.882Z,6.55
2023-04-13T06:50:13.902Z,9.35
2023-04-13T06:52:43.866Z,5.70
2023-04-13T06:55:11.122Z,9.32
2023-04-13T06:57:37.906Z,5.60
2023-04-13T07:00:21.828Z,5.78
2023-04-13T07:02:55.703Z,9.23
2023-04-13T07:05:22.712Z,7.45
2023-04-13T07:07:49.548Z,15.88
2023-04-13T07:10:16.584Z,11.15
2023-04-13T07:12:43.448Z,7.57
2023-04-13T07:15:10.429Z,9.70
2023-04-13T07:17:37.307Z,10.20
2023-04-13T07:20:05.700Z,8.82
2023-04-13T07:22:33.578Z,10.93
2023-04-13T07:25:00.793Z,9.98
2023-04-13T07:27:28.136Z,7.45
2023-04-13T07:29:55.455Z,5.18
2023-04-13T07:32:24.472Z,10.65
2023-04-13T07:34:59.603Z,10.90
2023-04-13T07:37:26.599Z,8.95
2023-04-13T07:39:53.451Z,7.07
2023-04-13T07:42:20.354Z,6.95
2023-04-13T07:44:47.196Z,10.80
2023-04-13T07:47:14.252Z,7.13
2023-04-13T07:49:41.098Z,6.95
2023-04-13T07:52:07.952Z,14.80
2023-04-13T07:54:36.338Z,12.13
2023-04-13T07:57:03.931Z,9.30
2023-04-13T07:59:30.917Z,11.25
2023-04-13T08:01:58.026Z,5.43
2023-04-13T08:04:25.879Z,8.32
2023-04-13T08:06:54.002Z,8.93
2023-04-13T08:09:21.368Z,8.00
2023-04-13T08:11:49.556Z,5.82
2023-04-13T08:14:16.663Z,11.45
2023-04-13T08:16:43.483Z,13.95
2023-04-13T08:19:25.915Z,8.23
2023-04-13T08:21:52.803Z,7.90
2023-04-13T08:24:22.411Z,11.20
2023-04-13T08:26:49.393Z,9.02
2023-04-13T08:29:16.167Z,7.38
2023-04-13T08:31:42.970Z,9.35
2023-04-13T08:34:10.805Z,9.25
2023-04-13T08:36:38.452Z,8.60
2023-04-13T08:39:10.239Z,7.00
2023-04-13T08:41:43.447Z,6.20
2023-04-13T08:44:13.425Z,9.13
2023-04-13T08:46:43.788Z,8.82
2023-04-13T08:49:12.976Z,9.57
2023-04-13T08:51:43.430Z,9.13
2023-04-13T08:54:12.801Z,10.52
2023-04-13T08:56:46.584Z,10.35
2023-04-13T08:59:16.140Z,9.57
2023-04-13T09:01:46.546Z,10.65
2023-04-13T09:04:17.989Z,17.00
2023-04-13T09:06:50.936Z,8.35
2023-04-13T09:09:19.246Z,10.55
2023-04-13T09:11:47.875Z,9.73
2023-04-13T09:14:22.129Z,14.60
2023-04-13T09:16:49.937Z,13.00
2023-04-13T09:19:28.764Z,28.75
2023-04-13T09:21:56.198Z,30.67
2023-04-13T09:24:23.486Z,7.20
2023-04-13T09:26:50.925Z,7.53
2023-04-13T09:29:21.815Z,7.65
2023-04-13T09:31:48.971Z,11.23
2023-04-13T09:34:29.445Z,12.20
2023-04-13T09:36:59.544Z,8.27
2023-04-13T09:39:29.184Z,7.32
2023-04-13T09:41:57.939Z,11.93
2023-04-13T09:44:27.393Z,10.35
2023-04-13T09:47:01.789Z,8.98
2023-04-13T09:49:38.599Z,4.40
2023-04-13T09:52:23.532Z,10.40
2023-04-13T09:57:29.560Z,8.82
2023-04-13T10:00:07.151Z,8.50
2023-04-13T10:02:34.359Z,7.88
2023-04-13T10:05:02.440Z,6.50
2023-04-13T10:07:30.719Z,8.07
2023-04-13T10:09:57.543Z,11.25
2023-04-13T10:12:26.777Z,6.32
2023-04-13T10:15:03.966Z,9.30
2023-04-13T10:18:26.010Z,7.57
2023-04-13T10:20:54.377Z,11.10
2023-04-13T10:23:21.838Z,9.30
2023-04-13T10:25:57.484Z,7.10
2023-04-13T10:28:26.254Z,7.63
2023-04-13T10:30:54.369Z,10.68
2023-04-13T10:33:21.426Z,6.03
2023-04-13T10:35:59.502Z,3.70
2023-04-13T10:38:27.521Z,1.60
2023-04-13T10:40:54.330Z,2.70
2023-04-13T10:43:32.351Z,5.63
2023-04-13T10:46:11.163Z,4.03
2023-04-13T10:48:38.461Z,10.80
2023-04-13T10:51:05.415Z,6.20
2023-04-13T10:53:33.367Z,3.30
2023-04-13T10:56:01.348Z,5.28
2023-04-13T10:58:33.131Z,5.47
2023-04-13T11:01:00.625Z,4.97
2023-04-13T11:04:04.394Z,2.65
2023-04-13T11:06:39.996Z,3.35
2023-04-13T11:09:07.880Z,5.00
2023-04-13T11:11:37.749Z,2.25
2023-04-13T11:14:04.650Z,3.85
2023-04-13T11:16:31.677Z,5.70
2023-04-13T11:19:03.490Z,3.78
2023-04-13T11:21:31.783Z,3.80
2023-04-13T11:24:02.447Z,5.28
2023-04-13T11:26:39.763Z,4.28
2023-04-13T11:29:16.967Z,4.25
2023-04-13T11:31:43.902Z,3.55
2023-04-13T11:34:13.911Z,4.60
2023-04-13T11:36:42.164Z,3.65
2023-04-13T11:39:10.634Z,5.80
2023-04-13T11:41:44.208Z,5.00
2023-04-13T11:44:14.607Z,6.65
2023-04-13T11:46:41.919Z,5.05
2023-04-13T11:49:08.977Z,6.22
2023-04-13T11:51:37.067Z,4.15
2023-04-13T11:54:04.558Z,3.95
2023-04-13T11:56:31.368Z,5.97
2023-04-13T12:01:29.096Z,2.42
2023-04-13T12:04:14.665Z,12.30
2023-04-13T12:06:47.388Z,6.50
2023-04-13T12:09:17.318Z,3.85
2023-04-13T12:11:50.055Z,4.13
2023-04-13T12:19:26.746Z,6.20
2023-04-13T12:21:56.687Z,4.97
2023-04-13T12:24:39.891Z,10.13
2023-04-13T12:29:40.961Z,6.55
2023-04-13T12:32:16.916Z,9.18
2023-04-13T12:34:44.779Z,4.75
2023-04-13T12:37:12.140Z,5.18
2023-04-13T12:39:39.103Z,5.45
2023-04-13T12:42:06.232Z,3.63
2023-04-13T12:44:34.394Z,4.97
2023-04-13T12:47:02.470Z,3.90
2023-04-13T12:49:29.930Z,3.97
2023-04-13T12:51:56.879Z,5.22
2023-04-13T12:54:23.686Z,3.72
2023-04-13T12:56:50.460Z,5.10
2023-04-13T12:59:17.743Z,5.75
2023-04-13T13:01:44.722Z,1.40
2023-04-13T13:04:11.988Z,4.70
2023-04-13T13:06:38.762Z,3.28
2023-04-13T13:09:31.948Z,4.82
2023-04-13T13:11:58.860Z,3.92
2023-04-13T13:14:25.822Z,2.72
2023-04-13T13:16:53.110Z,3.10
2023-04-13T13:19:20.045Z,2.72
2023-04-13T13:21:46.860Z,4.60
2023-04-13T13:24:13.684Z,6.35
2023-04-13T13:29:13.127Z,9.55
2023-04-13T13:31:41.336Z,3.38
2023-04-13T13:34:08.149Z,5.00
2023-04-13T13:36:34.902Z,7.78
2023-04-13T13:39:01.816Z,3.78
2023-04-13T13:41:28.720Z,7.00
2023-04-13T13:43:55.658Z,4.32
2023-04-13T13:46:22.515Z,4.22
2023-04-13T13:48:49.323Z,4.50
2023-04-13T13:51:16.261Z,7.45
2023-04-13T13:53:43.054Z,6.97
2023-04-13T13:56:09.847Z,2.30
2023-04-13T13:58:36.637Z,6.05
2023-04-13T14:01:04.801Z,8.18
2023-04-13T14:03:32.613Z,8.60
2023-04-13T14:05:59.802Z,6.10
2023-04-13T14:08:26.609Z,5.13
2023-04-13T14:10:53.469Z,7.45
2023-04-13T14:13:20.595Z,19.20
2023-04-13T14:15:47.572Z,8.52
2023-04-13T14:18:14.895Z,5.03
2023-04-13T14:20:43.257Z,6.70
2023-04-13T14:23:10.339Z,3.17
2023-04-13T14:25:38.672Z,2.60
2023-04-13T14:28:06.717Z,7.20
2023-04-13T14:30:33.715Z,6.85
2023-04-13T14:33:01.299Z,5.90
2023-04-13T14:35:28.204Z,3.65
2023-04-13T14:37:55.024Z,5.28
2023-04-13T14:40:23.336Z,9.95
2023-04-13T14:42:53.960Z,10.30
2023-04-13T14:46:05.327Z,6.80
2023-04-13T14:48:33.417Z,8.57
2023-04-13T14:51:00.288Z,7.15
2023-04-13T14:53:27.166Z,6.93
2023-04-13T14:55:54.018Z,5.75
2023-04-13T14:58:21.510Z,7.82
2023-04-13T15:00:48.345Z,4.65
2023-04-13T15:03:15.836Z,5.88
2023-04-13T15:05:46.212Z,5.53
2023-04-13T15:08:15.708Z,6.60
2023-04-13T15:10:42.863Z,5.32
2023-04-13T15:13:09.782Z,8.60
2023-04-13T15:16:28.030Z,3.72
2023-04-13T15:18:54.848Z,4.80
2023-04-13T15:21:21.770Z,7.32
2023-04-13T15:23:48.522Z,6.18
2023-04-13T15:26:19.755Z,3.80
2023-04-13T15:28:46.761Z,6.45
2023-04-13T15:31:13.627Z,7.90
2023-04-13T15:33:40.425Z,4.70
2023-04-13T15:36:08.554Z,6.20
2023-04-13T15:38:35.390Z,9.15
2023-04-13T15:41:02.171Z,5.15
2023-04-13T15:43:28.997Z,5.57
2023-04-13T15:45:56.421Z,5.75
2023-04-13T15:48:23.377Z,6.13
2023-04-13T15:50:58.486Z,5.40
2023-04-13T15:53:26.859Z,9.65
2023-04-13T15:55:53.943Z,7.25
2023-04-13T15:58:21.562Z,5.25
2023-04-13T16:01:00.513Z,7.90
2023-04-13T16:03:27.567Z,2.85
2023-04-13T16:05:54.443Z,3.70
2023-04-13T16:08:21.679Z,4.30
2023-04-13T16:10:48.816Z,5.65
2023-04-13T16:13:19.249Z,4.18
2023-04-13T16:15:55.583Z,4.43
2023-04-13T16:18:32.245Z,5.30
2023-04-13T16:21:02.226Z,6.70
2023-04-13T16:23:30.600Z,9.30
2023-04-13T16:25:57.450Z,6.45
2023-04-13T16:28:24.322Z,8.68
2023-04-13T16:30:51.208Z,5.53
2023-04-13T16:33:18.006Z,8.38
2023-04-13T16:35:44.770Z,6.90
2023-04-13T16:38:11.994Z,6.07
2023-04-13T16:40:38.790Z,4.80
2023-04-13T16:43:05.813Z,4.70
2023-04-13T16:45:33.229Z,4.20
2023-04-13T16:48:00.057Z,6.55
2023-04-13T16:50:31.950Z,8.55
2023-04-13T16:52:59.529Z,6.63
2023-04-13T16:55:28.502Z,11.88
2023-04-13T16:57:56.055Z,6.72
2023-04-13T17:00:23.535Z,12.75
2023-04-13T17:02:52.999Z,9.35
2023-04-13T17:05:20.089Z,8.65
2023-04-13T17:07:48.080Z,6.20
2023-04-13T17:10:15.131Z,5.03
2023-04-13T17:12:42.250Z,4.50
2023-04-13T17:15:10.306Z,2.50
2023-04-13T17:17:38.234Z,8.30
2023-04-13T17:20:06.932Z,5.68
2023-04-13T17:22:33.757Z,6.07
2023-04-13T17:25:00.965Z,5.50
2023-04-13T17:27:27.861Z,4.72
2023-04-13T17:29:54.926Z,6.70
2023-04-13T17:32:22.294Z,3.55
2023-04-13T17:34:50.180Z,7.03
2023-04-13T17:37:17.984Z,1.73
2023-04-13T17:39:49.515Z,4.90
2023-04-13T17:42:17.307Z,5.93
2023-04-13T17:44:44.476Z,4.18
2023-04-13T17:47:11.336Z,6.82
2023-04-13T17:49:38.656Z,7.95
2023-04-13T17:52:05.442Z,5.47
2023-04-13T17:54:33.014Z,5.32
2023-04-13T17:57:01.676Z,3.17
2023-04-13T17:59:28.585Z,5.13
2023-04-13T18:01:56.070Z,7.85
2023-04-13T18:04:23.124Z,3.10
2023-04-13T18:06:50.051Z,5.03
2023-04-13T18:09:17.015Z,7.13
2023-04-13T18:11:44.339Z,7.28
2023-04-13T18:14:15.990Z,5.90
2023-04-13T18:16:42.973Z,9.95
2023-04-13T18:19:09.846Z,4.55
2023-04-13T18:21:37.210Z,5.93
2023-04-13T18:24:04.381Z,7.53
2023-04-13T18:26:31.364Z,7.72
2023-04-13T18:28:58.166Z,8.50
2023-04-13T18:31:25.349Z,7.70
2023-04-13T18:33:54.533Z,7.28
2023-04-13T18:36:21.447Z,7.95
2023-04-13T18:38:48.248Z,8.55
2023-04-13T18:41:15.143Z,12.55
2023-04-13T18:43:41.944Z,7.00
2023-04-13T18:46:09.088Z,13.35
2023-04-13T18:48:36.113Z,18.00
2023-04-13T18:51:03.562Z,15.73
2023-04-13T18:53:31.004Z,17.20
2023-04-13T18:55:58.852Z,15.98
2023-04-13T18:58:26.461Z,16.30
2023-04-13T19:00:53.363Z,15.63
2023-04-13T19:03:20.337Z,12.93
2023-04-13T19:05:58.186Z,14.68
2023-04-13T19:08:24.996Z,10.50
2023-04-13T19:10:51.761Z,13.00
2023-04-13T19:13:18.892Z,11.45
2023-04-13T19:15:45.700Z,13.13
2023-04-13T19:18:12.506Z,12.73
2023-04-13T19:20:39.390Z,17.83
2023-04-13T19:23:06.722Z,21.55
2023-04-13T19:25:33.536Z,20.80
2023-04-13T19:28:00.653Z,22.00
2023-04-13T19:30:27.774Z,27.15
2023-04-13T19:32:54.883Z,28.85
2023-04-13T19:35:24.314Z,25.52
2023-04-13T19:37:51.190Z,23.05
2023-04-13T19:41:08.975Z,19.23
2023-04-13T19:43:35.832Z,14.85
2023-04-13T19:46:02.678Z,16.27
2023-04-13T19:48:29.503Z,8.00
2023-04-13T19:50:56.364Z,8.55
2023-04-13T19:53:23.170Z,17.02
2023-04-13T19:55:51.226Z,7.55
2023-04-13T19:58:18.433Z,10.45
2023-04-13T20:00:47.309Z,5.95
2023-04-13T20:03:14.359Z,9.88
2023-04-13T20:05:41.989Z,11.77
2023-04-13T20:08:09.250Z,8.27
2023-04-13T20:11:13.568Z,11.75
2023-04-13T20:13:41.478Z,9.43
2023-04-13T20:16:10.049Z,10.35
2023-04-13T20:18:36.995Z,13.82
2023-04-13T20:21:04.282Z,13.95
2023-04-13T20:23:31.434Z,10.13
2023-04-13T20:25:58.344Z,12.80
2023-04-13T20:28:25.293Z,13.43
2023-04-13T20:30:52.493Z,8.43
2023-04-13T20:33:19.465Z,13.18
2023-04-13T20:35:46.325Z,10.75
2023-04-13T20:38:13.870Z,10.55
2023-04-13T20:40:41.712Z,11.95
2023-04-13T20:43:09.642Z,11.82
2023-04-13T20:45:36.660Z,5.78
2023-04-13T20:50:35.646Z,10.18
2023-04-13T20:53:03.540Z,11.45
2023-04-13T20:55:30.756Z,10.23
2023-04-13T20:57:57.602Z,6.57
2023-04-13T21:00:25.010Z,5.70
2023-04-13T21:02:53.105Z,7.30
2023-04-13T21:05:22.166Z,5.03
2023-04-13T21:07:50.078Z,11.35
2023-04-13T21:10:17.706Z,7.57
2023-04-13T21:12:44.599Z,10.07
2023-04-13T21:15:11.847Z,6.55
2023-04-13T21:17:38.927Z,10.18
2023-04-13T21:20:08.841Z,8.43
2023-04-13T21:22:36.813Z,9.40
2023-04-13T21:25:05.340Z,8.32
2023-04-13T21:27:32.549Z,9.13
2023-04-13T21:30:01.147Z,6.55
2023-04-13T21:32:28.056Z,8.85
2023-04-13T21:34:55.750Z,8.40
2023-04-13T21:37:22.508Z,9.07
2023-04-13T21:39:49.300Z,6.55
2023-04-13T21:42:16.920Z,12.85
2023-04-13T21:44:43.712Z,7.18
2023-04-13T21:47:10.543Z,7.65
2023-04-13T21:49:37.420Z,8.88
2023-04-13T21:52:04.667Z,4.05
2023-04-13T21:54:31.422Z,9.10
2023-04-13T21:56:58.270Z,5.63
2023-04-13T21:59:27.232Z,5.45
2023-04-13T22:01:57.124Z,10.05
2023-04-13T22:04:24.325Z,6.03
2023-04-13T22:06:51.254Z,8.18
2023-04-13T22:09:18.095Z,7.25
2023-04-13T22:11:44.983Z,6.47
2023-04-13T22:14:11.761Z,9.93
2023-04-13T22:16:38.554Z,7.03
2023-04-13T22:19:05.555Z,7.93
2023-04-13T22:21:35.986Z,11.68
2023-04-13T22:24:03.039Z,9.20
2023-04-13T22:26:30.549Z,7.40
2023-04-13T22:28:57.466Z,5.53
2023-04-13T22:31:24.466Z,5.82
2023-04-13T22:33:51.324Z,8.95
2023-04-13T22:36:20.626Z,4.93
2023-04-13T22:38:48.310Z,7.80
2023-04-13T22:41:16.093Z,9.07
2023-04-13T22:43:42.972Z,8.10
2023-04-13T22:46:09.862Z,8.95
2023-04-13T22:48:36.716Z,8.55
2023-04-13T22:51:03.827Z,9.30
2023-04-13T22:53:31.103Z,11.52
2023-04-13T22:55:59.386Z,8.88
2023-04-13T22:58:26.446Z,14.27
2023-04-13T23:00:53.348Z,6.72
2023-04-13T23:03:21.243Z,5.00
2023-04-13T23:05:48.293Z,8.23
2023-04-13T23:08:15.323Z,9.15
2023-04-13T23:10:42.207Z,7.88
2023-04-13T23:13:08.962Z,10.93
2023-04-13T23:15:35.842Z,12.80
2023-04-13T23:18:02.781Z,8.10
2023-04-13T23:20:30.139Z,5.13
2023-04-13T23:22:57.180Z,7.45
2023-04-13T23:25:24.276Z,12.25
2023-04-13T23:27:51.189Z,7.68
2023-04-13T23:30:18.200Z,5.88
2023-04-13T23:32:45.098Z,11.00
2023-04-13T23:35:11.961Z,9.30
2023-04-13T23:37:40.648Z,7.32
2023-04-13T23:40:09.083Z,9.98
2023-04-13T23:42:35.965Z,8.68
2023-04-13T23:45:02.856Z,8.23
2023-04-13T23:47:29.936Z,10.30
2023-04-13T23:49:56.941Z,13.65
2023-04-13T23:52:23.745Z,10.85
2023-04-13T23:54:50.563Z,7.88
2023-04-13T23:57:17.365Z,6.72
2023-04-13T23:59:44.154Z,10.07
